Time;durP1;ratioP1;P1;durP2;ratioP2;P2;SDS_P1;SDS_P2;PMS_P1;PMS_P2;Temp;Humidity;BMP_temperature;BMP_pressure;BME280_temperature;BME280_humidity;BME280_pressure;Samples;Min_cycle;Max_cycle;Signal;HPM_P1;HPM_P2
2024/01/16 00:00:33;;;;;;;7.68;3.42;;;2.70;99.90;;;;;;5065655;28;20028;-48
2024/01/16 00:02:59;;;;;;;7.13;3.20;;;2.70;99.90;;;;;;5065910;28;20029;-48
2024/01/16 00:05:25;;;;;;;9.43;3.28;;;2.60;99.90;;;;;;5065562;28;20028;-48
2024/01/16 00:07:50;;;;;;;9.85;4.57;;;2.60;99.90;;;;;;5065741;28;20302;-48
2024/01/16 00:10:16;;;;;;;5.88;2.70;;;2.60;99.90;;;;;;5065608;28;20325;-46
2024/01/16 00:12:42;;;;;;;7.63;2.72;;;2.60;99.90;;;;;;5065620;28;20017;-48
2024/01/16 00:15:08;;;;;;;9.65;3.05;;;2.70;99.90;;;;;;5065397;28;20106;-48
2024/01/16 00:17:34;;;;;;;5.72;3.03;;;2.70;99.90;;;;;;5065213;28;20032;-48
2024/01/16 00:20:00;;;;;;;9.48;3.47;;;2.80;99.90;;;;;;5065293;28;20135;-47
2024/01/16 00:22:27;;;;;;;6.88;3.25;;;2.80;99.90;;;;;;5064326;28;20032;-47
2024/01/16 00:24:52;;;;;;;6.82;2.97;;;2.90;99.90;;;;;;5065509;28;20029;-45
2024/01/16 00:27:18;;;;;;;5.88;2.50;;;2.80;99.90;;;;;;5064238;28;20029;-46
2024/01/16 00:29:44;;;;;;;6.28;2.42;;;2.80;99.90;;;;;;5065214;28;20136;-47
2024/01/16 00:32:09;;;;;;;7.78;3.25;;;2.90;99.90;;;;;;5067548;28;20045;-45
2024/01/16 00:34:35;;;;;;;6.80;2.90;;;2.90;99.90;;;;;;5069137;28;20024;-45
2024/01/16 00:37:01;;;;;;;9.40;2.88;;;2.90;99.90;;;;;;5069330;28;20020;-45
2024/01/16 00:39:26;;;;;;;7.05;2.85;;;2.80;99.90;;;;;;5069422;28;20194;-45
2024/01/16 00:41:52;;;;;;;6.70;3.00;;;2.90;99.90;;;;;;5069252;28;20029;-45
2024/01/16 00:44:18;;;;;;;7.53;2.63;;;2.80;99.90;;;;;;5069150;28;20157;-46
2024/01/16 00:46:43;;;;;;;7.00;2.65;;;2.80;99.90;;;;;;5069270;28;20275;-45
2024/01/16 00:49:09;;;;;;;6.82;2.60;;;2.90;99.90;;;;;;5069170;28;20033;-45
2024/01/16 00:51:35;;;;;;;7.85;2.95;;;3.00;99.90;;;;;;5069063;28;20064;-45
2024/01/16 00:54:00;;;;;;;8.70;3.20;;;3.00;99.90;;;;;;5069186;28;20048;-45
2024/01/16 00:56:32;;;;;;;6.93;2.78;;;2.90;99.90;;;;;;5068957;28;20025;-46
2024/01/16 00:58:57;;;;;;;6.15;2.33;;;2.90;99.90;;;;;;5068974;28;20103;-45
2024/01/16 01:01:23;;;;;;;4.65;2.47;;;2.90;99.90;;;;;;5068778;28;20037;-46
2024/01/16 01:03:49;;;;;;;8.07;2.75;;;2.80;99.90;;;;;;5068646;28;20025;-45
2024/01/16 01:06:14;;;;;;;5.60;2.15;;;2.80;99.90;;;;;;5068773;28;20024;-46
2024/01/16 01:08:40;;;;;;;4.40;2.10;;;2.80;99.90;;;;;;5068826;28;20083;-47
2024/01/16 01:11:06;;;;;;;5.80;2.22;;;2.80;99.90;;;;;;5068713;28;20048;-46
2024/01/16 01:13:31;;;;;;;5.88;2.90;;;2.80;99.90;;;;;;5068793;28;20203;-45
2024/01/16 01:15:57;;;;;;;7.03;2.80;;;2.90;99.90;;;;;;5067382;28;20060;-48
2024/01/16 01:18:23;;;;;;;4.40;2.47;;;2.90;99.90;;;;;;5067519;28;20195;-49
2024/01/16 01:20:48;;;;;;;8.73;2.42;;;2.90;99.90;;;;;;5068779;28;20286;-48
2024/01/16 01:23:14;;;;;;;7.35;2.63;;;2.90;99.90;;;;;;5068085;28;20230;-49
2024/01/16 01:25:40;;;;;;;6.13;2.90;;;3.00;99.90;;;;;;5067288;28;20029;-48
2024/01/16 01:28:05;;;;;;;7.30;2.38;;;3.00;99.90;;;;;;5068392;28;20028;-49
2024/01/16 01:30:32;;;;;;;7.60;2.65;;;3.00;99.90;;;;;;5068329;28;20186;-48
2024/01/16 01:32:57;;;;;;;8.90;2.78;;;3.00;99.90;;;;;;5068312;28;20092;-49
2024/01/16 01:35:23;;;;;;;12.93;3.22;;;3.20;99.90;;;;;;5068223;28;20043;-47
2024/01/16 01:37:49;;;;;;;7.30;2.85;;;3.30;99.90;;;;;;5067939;28;20357;-45
2024/01/16 01:40:15;;;;;;;8.32;3.10;;;3.30;99.90;;;;;;5068101;28;20198;-45
2024/01/16 01:42:42;;;;;;;5.95;2.13;;;3.40;99.90;;;;;;5067884;28;20295;-45
2024/01/16 01:45:09;;;;;;;5.63;1.73;;;3.40;99.90;;;;;;5068153;28;20100;-46
2024/01/16 01:47:35;;;;;;;6.93;2.05;;;3.40;99.90;;;;;;5068178;28;20032;-45
2024/01/16 01:50:03;;;;;;;3.30;1.88;;;3.40;99.90;;;;;;5067869;28;20025;-45
2024/01/16 01:52:30;;;;;;;7.78;1.73;;;3.40;99.90;;;;;;5066903;28;20029;-46
2024/01/16 01:54:56;;;;;;;4.35;1.30;;;3.50;99.90;;;;;;5066861;28;20017;-45
2024/01/16 01:57:22;;;;;;;5.65;1.60;;;3.50;99.90;;;;;;5067003;28;20025;-45
2024/01/16 01:59:47;;;;;;;4.55;1.40;;;3.50;99.90;;;;;;5050058;28;20036;-45
2024/01/16 02:02:13;;;;;;;2.88;1.20;;;3.60;99.90;;;;;;5067718;28;20021;-45
2024/01/16 02:04:39;;;;;;;5.38;1.55;;;3.70;99.90;;;;;;5050177;28;20100;-46
2024/01/16 02:07:05;;;;;;;3.33;1.75;;;3.60;99.90;;;;;;5066728;28;20071;-45
2024/01/16 02:09:31;;;;;;;4.20;1.40;;;3.60;99.90;;;;;;5067612;28;20210;-46
2024/01/16 02:11:57;;;;;;;6.65;1.95;;;3.70;99.90;;;;;;5067609;28;20035;-45
2024/01/16 02:14:23;;;;;;;5.38;1.52;;;3.70;99.90;;;;;;5067436;28;20028;-46
2024/01/16 02:16:49;;;;;;;3.25;1.40;;;3.70;99.90;;;;;;5067417;28;20045;-46
2024/01/16 02:19:15;;;;;;;3.13;1.63;;;3.70;99.90;;;;;;5067063;28;20190;-45
2024/01/16 02:21:48;;;;;;;4.78;1.48;;;3.70;99.90;;;;;;5067151;28;20056;-46
2024/01/16 02:24:14;;;;;;;5.03;1.42;;;3.70;99.90;;;;;;5067277;28;20027;-45
2024/01/16 02:26:39;;;;;;;5.78;1.60;;;3.60;99.90;;;;;;5066415;28;20053;-45
2024/01/16 02:29:05;;;;;;;4.38;1.60;;;3.60;99.90;;;;;;5066859;28;20044;-46
2024/01/16 02:31:32;;;;;;;4.38;1.33;;;3.60;99.90;;;;;;5066354;28;20100;-46
2024/01/16 02:33:58;;;;;;;4.35;1.40;;;3.70;99.90;;;;;;5067146;28;20028;-46
2024/01/16 02:36:24;;;;;;;4.63;1.80;;;3.70;99.90;;;;;;5067072;28;20036;-45
2024/01/16 02:38:50;;;;;;;3.47;1.40;;;3.80;99.90;;;;;;5067004;28;20281;-48
2024/01/16 02:41:16;;;;;;;3.40;1.42;;;3.80;99.90;;;;;;5066940;28;20094;-46
2024/01/16 02:43:41;;;;;;;5.95;1.90;;;3.80;99.90;;;;;;5066964;28;20036;-46
2024/01/16 02:46:08;;;;;;;4.88;1.73;;;3.70;99.90;;;;;;5066507;28;20196;-44
2024/01/16 02:48:34;;;;;;;4.20;1.50;;;3.70;99.90;;;;;;5066015;28;20029;-46
2024/01/16 02:51:00;;;;;;;3.35;1.40;;;3.60;99.90;;;;;;5066868;28;20238;-46
2024/01/16 02:53:27;;;;;;;6.63;1.55;;;3.70;99.90;;;;;;5066198;28;20028;-46
2024/01/16 02:55:54;;;;;;;2.95;1.35;;;3.70;99.90;;;;;;5065373;28;20028;-45
2024/01/16 02:58:19;;;;;;;4.10;1.48;;;3.70;99.90;;;;;;5066545;28;20101;-45
2024/01/16 03:00:45;;;;;;;5.20;1.48;;;3.70;99.90;;;;;;5066288;28;20021;-45
2024/01/16 03:03:11;;;;;;;2.40;1.13;;;3.70;99.90;;;;;;5066698;28;20032;-45
2024/01/16 03:05:36;;;;;;;4.25;1.25;;;3.80;99.90;;;;;;5066725;28;20079;-47
2024/01/16 03:08:02;;;;;;;4.18;1.50;;;3.80;99.90;;;;;;5066567;28;20044;-46
2024/01/16 03:10:28;;;;;;;4.57;1.30;;;3.80;99.90;;;;;;5065470;28;20029;-45
2024/01/16 03:12:54;;;;;;;5.35;1.60;;;3.80;99.90;;;;;;5066377;28;20060;-45
2024/01/16 03:15:20;;;;;;;8.60;1.73;;;3.80;99.90;;;;;;5066195;28;20078;-46
2024/01/16 03:17:46;;;;;;;4.57;1.83;;;3.80;99.90;;;;;;5066011;28;20033;-46
2024/01/16 03:20:12;;;;;;;6.50;1.98;;;3.70;99.90;;;;;;5065199;28;20074;-45
2024/01/16 03:22:39;;;;;;;8.32;2.00;;;3.70;99.90;;;;;;5065232;28;20025;-46
2024/01/16 03:25:05;;;;;;;7.35;2.40;;;3.60;99.90;;;;;;5066313;28;20036;-45
2024/01/16 03:27:30;;;;;;;6.15;1.75;;;3.60;99.90;;;;;;5066123;28;20021;-45
2024/01/16 03:29:56;;;;;;;4.72;1.55;;;3.50;99.90;;;;;;5065859;28;20329;-46
2024/01/16 03:32:21;;;;;;;4.35;1.63;;;3.40;99.90;;;;;;5065670;28;20033;-45
2024/01/16 03:34:47;;;;;;;2.85;1.42;;;3.40;99.90;;;;;;5066194;28;20095;-50
2024/01/16 03:37:13;;;;;;;6.18;1.77;;;3.40;99.90;;;;;;5065680;28;20033;-49
2024/01/16 03:39:38;;;;;;;6.63;2.05;;;3.40;99.90;;;;;;5065895;28;20177;-47
2024/01/16 03:42:04;;;;;;;6.22;1.70;;;3.40;99.90;;;;;;5066324;28;20258;-49
2024/01/16 03:44:30;;;;;;;6.97;2.20;;;3.40;99.90;;;;;;5065983;28;20040;-46
2024/01/16 03:46:55;;;;;;;4.28;1.90;;;3.40;99.90;;;;;;5065917;28;20237;-48
2024/01/16 03:49:21;;;;;;;4.95;1.75;;;3.40;99.90;;;;;;5065589;28;20167;-46
2024/01/16 03:51:47;;;;;;;7.72;2.85;;;3.40;99.90;;;;;;5065703;28;20025;-49
2024/01/16 03:54:13;;;;;;;7.10;2.28;;;3.40;99.90;;;;;;5065959;28;20087;-48
2024/01/16 03:56:39;;;;;;;7.63;2.00;;;3.50;99.90;;;;;;5065789;28;20024;-48
2024/01/16 03:59:05;;;;;;;7.78;2.75;;;3.40;99.90;;;;;;5065660;28;20256;-48
2024/01/16 04:01:32;;;;;;;7.05;2.53;;;3.40;99.90;;;;;;5064452;28;20025;-49
2024/01/16 04:03:57;;;;;;;9.27;3.25;;;3.50;99.90;;;;;;5064466;28;20035;-47
2024/01/16 04:06:23;;;;;;;8.13;3.20;;;3.50;99.90;;;;;;5065528;28;20045;-46
2024/01/16 04:08:49;;;;;;;6.07;2.55;;;3.50;99.90;;;;;;5065743;28;20033;-46
2024/01/16 04:11:15;;;;;;;4.85;2.22;;;3.60;99.90;;;;;;5065261;28;20029;-46
2024/01/16 04:13:40;;;;;;;8.30;2.20;;;3.60;99.90;;;;;;5065380;28;20096;-47
2024/01/16 04:16:06;;;;;;;9.15;2.55;;;3.60;99.90;;;;;;5065319;28;20053;-46
2024/01/16 04:18:39;;;;;;;9.88;1.98;;;3.60;99.90;;;;;;5065446;28;20044;-46
2024/01/16 04:21:06;;;;;;;12.00;2.70;;;3.60;99.90;;;;;;5065582;28;20040;-48
2024/01/16 04:23:31;;;;;;;8.02;2.60;;;3.60;99.90;;;;;;5065461;28;20244;-49
2024/01/16 04:25:57;;;;;;;7.25;2.13;;;3.60;99.90;;;;;;5065288;28;20032;-45
2024/01/16 04:28:23;;;;;;;7.00;2.15;;;3.50;99.90;;;;;;5064525;28;20290;-45
2024/01/16 04:30:49;;;;;;;6.30;1.65;;;3.50;99.90;;;;;;5065393;28;20218;-45
2024/01/16 04:33:14;;;;;;;8.90;2.17;;;3.50;99.90;;;;;;5064914;28;20036;-45
2024/01/16 04:35:40;;;;;;;9.98;2.50;;;3.50;99.90;;;;;;5064304;28;20033;-45
2024/01/16 04:38:07;;;;;;;7.43;1.80;;;3.50;99.90;;;;;;5065243;28;20070;-46
2024/01/16 04:40:33;;;;;;;6.30;1.80;;;3.50;99.90;;;;;;5065372;28;20086;-49
2024/01/16 04:42:59;;;;;;;4.95;1.42;;;3.50;99.90;;;;;;5064335;28;20279;-49
2024/01/16 04:45:24;;;;;;;6.78;1.98;;;3.40;99.90;;;;;;5065199;28;20092;-49
2024/01/16 04:47:50;;;;;;;3.88;2.00;;;3.50;99.90;;;;;;5065089;28;20048;-48
2024/01/16 04:50:16;;;;;;;6.72;2.05;;;3.40;99.90;;;;;;5065250;28;20037;-46
2024/01/16 04:52:41;;;;;;;7.50;1.92;;;3.40;99.90;;;;;;5065201;28;20024;-46
2024/01/16 04:55:07;;;;;;;8.77;1.83;;;3.40;99.90;;;;;;5065244;28;20029;-49
2024/01/16 04:57:33;;;;;;;4.20;1.27;;;3.40;99.90;;;;;;5065136;28;20025;-48
2024/01/16 04:59:59;;;;;;;6.53;1.60;;;3.30;99.90;;;;;;5065016;28;20298;-48
2024/01/16 05:02:24;;;;;;;3.72;1.30;;;3.40;99.90;;;;;;5065216;28;20079;-48
2024/01/16 05:04:51;;;;;;;6.13;1.60;;;3.40;99.90;;;;;;5065107;28;20083;-49
2024/01/16 05:07:23;;;;;;;8.13;1.60;;;3.30;99.90;;;;;;5065358;28;20025;-49
2024/01/16 05:09:49;;;;;;;4.80;1.75;;;3.40;99.90;;;;;;5064157;28;20107;-49
2024/01/16 05:12:15;;;;;;;5.10;1.77;;;3.40;99.90;;;;;;5064003;28;20191;-48
2024/01/16 05:14:40;;;;;;;5.13;1.92;;;3.40;99.90;;;;;;5063834;28;20037;-49
2024/01/16 05:17:06;;;;;;;5.20;1.83;;;3.40;99.90;;;;;;5064497;28;20044;-46
2024/01/16 05:19:32;;;;;;;3.95;1.38;;;3.40;99.90;;;;;;5067637;28;20038;-48
2024/01/16 05:21:57;;;;;;;3.97;1.60;;;3.40;99.90;;;;;;5068608;28;20032;-46
2024/01/16 05:24:23;;;;;;;4.75;1.50;;;3.40;99.90;;;;;;5068221;28;20198;-46
2024/01/16 05:26:49;;;;;;;5.13;1.30;;;3.40;99.90;;;;;;5068561;28;20224;-48
2024/01/16 05:29:14;;;;;;;6.18;1.63;;;3.40;99.90;;;;;;5068335;28;20302;-49
2024/01/16 05:31:43;;;;;;;4.53;1.30;;;3.50;99.90;;;;;;5068286;28;20195;-49
2024/01/16 05:34:12;;;;;;;2.28;1.10;;;3.60;99.90;;;;;;5068268;28;20055;-49
2024/01/16 05:36:37;;;;;;;4.82;1.15;;;3.60;99.90;;;;;;5068261;28;20029;-49
2024/01/16 05:39:03;;;;;;;6.07;1.48;;;3.50;99.90;;;;;;5068189;28;20069;-46
2024/01/16 05:41:35;;;;;;;6.13;1.33;;;3.60;99.90;;;;;;5068096;28;20083;-46
2024/01/16 05:44:03;;;;;;;3.33;1.35;;;3.60;99.90;;;;;;5067981;28;20096;-47
2024/01/16 05:46:30;;;;;;;3.55;1.05;;;3.60;99.90;;;;;;5068049;28;20044;-49
2024/01/16 05:48:56;;;;;;;6.68;1.23;;;3.70;99.90;;;;;;5068006;28;20086;-54
2024/01/16 05:51:22;;;;;;;5.90;1.20;;;3.70;99.90;;;;;;5067689;28;20029;-47
2024/01/16 05:53:47;;;;;;;5.22;1.10;;;3.80;99.90;;;;;;5067846;28;20064;-49
2024/01/16 05:56:14;;;;;;;3.05;1.30;;;3.80;99.90;;;;;;5066823;28;20299;-48
2024/01/16 05:58:39;;;;;;;4.90;1.27;;;3.90;99.90;;;;;;5067757;28;20033;-46
2024/01/16 06:01:05;;;;;;;5.75;1.13;;;3.90;99.90;;;;;;5067830;28;20094;-48
2024/01/16 06:03:31;;;;;;;5.35;1.30;;;4.00;99.90;;;;;;5066692;28;20025;-49
2024/01/16 06:05:57;;;;;;;4.57;1.73;;;4.00;99.90;;;;;;5067531;28;20279;-48
2024/01/16 06:08:23;;;;;;;3.75;1.73;;;3.90;99.90;;;;;;5067573;28;20032;-49
2024/01/16 06:10:49;;;;;;;5.78;1.20;;;4.00;99.90;;;;;;5067493;28;20182;-46
2024/01/16 06:13:14;;;;;;;4.38;1.73;;;4.00;99.90;;;;;;5066214;28;20176;-49
2024/01/16 06:15:40;;;;;;;4.65;1.08;;;4.00;99.90;;;;;;5067408;28;20207;-49
2024/01/16 06:18:05;;;;;;;2.13;1.00;;;3.90;99.90;;;;;;5067436;28;20234;-47
2024/01/16 06:20:32;;;;;;;2.83;0.85;;;3.90;99.90;;;;;;5067424;28;20298;-48
2024/01/16 06:22:58;;;;;;;4.43;0.90;;;3.80;99.90;;;;;;5067376;28;20028;-49
2024/01/16 06:25:24;;;;;;;4.28;1.10;;;3.80;99.90;;;;;;5067189;28;20040;-49
2024/01/16 06:27:49;;;;;;;6.82;1.50;;;3.80;99.90;;;;;;5066796;28;20024;-49
2024/01/16 06:30:15;;;;;;;8.32;1.48;;;3.80;99.90;;;;;;5066105;28;20029;-48
2024/01/16 06:32:40;;;;;;;5.13;1.08;;;3.80;99.90;;;;;;5067252;28;20081;-47
2024/01/16 06:35:08;;;;;;;2.72;1.15;;;3.80;99.90;;;;;;5066119;28;20029;-49
2024/01/16 06:37:33;;;;;;;7.03;1.20;;;3.80;99.90;;;;;;5066970;28;20025;-48
2024/01/16 06:39:59;;;;;;;7.00;1.20;;;3.80;99.90;;;;;;5065767;28;20044;-49
2024/01/16 06:42:25;;;;;;;6.22;1.50;;;3.80;99.90;;;;;;5067050;28;20175;-48
2024/01/16 06:44:50;;;;;;;19.42;6.07;;;3.80;99.90;;;;;;5065797;28;20287;-49
2024/01/16 06:47:16;;;;;;;14.10;5.55;;;3.80;99.90;;;;;;5066313;28;20036;-49
2024/01/16 06:49:42;;;;;;;9.68;3.38;;;3.80;99.90;;;;;;5066923;28;20035;-49
2024/01/16 06:52:09;;;;;;;8.27;2.70;;;3.80;99.90;;;;;;5066637;28;20041;-47
2024/01/16 06:54:34;;;;;;;9.55;4.07;;;3.80;99.90;;;;;;5066677;28;20063;-46
2024/01/16 06:57:00;;;;;;;7.72;2.13;;;3.80;99.90;;;;;;5066684;28;20286;-47
2024/01/16 06:59:26;;;;;;;13.98;3.53;;;3.80;99.90;;;;;;5066019;28;20025;-45
2024/01/16 07:01:51;;;;;;;10.38;3.05;;;3.80;99.90;;;;;;5066527;28;20047;-46
2024/01/16 07:04:17;;;;;;;11.23;4.25;;;3.80;99.90;;;;;;5066395;28;20054;-45
2024/01/16 07:06:43;;;;;;;9.77;3.92;;;3.90;99.90;;;;;;5066475;28;20056;-46
2024/01/16 07:09:12;;;;;;;10.63;3.40;;;3.80;99.90;;;;;;5065490;28;20029;-46
2024/01/16 07:11:38;;;;;;;14.10;4.80;;;3.80;99.90;;;;;;5066359;28;20052;-45
2024/01/16 07:14:06;;;;;;;13.75;5.43;;;3.70;99.90;;;;;;5066365;28;20282;-46
2024/01/16 07:16:32;;;;;;;11.73;5.40;;;3.70;99.90;;;;;;5064963;28;20211;-45
2024/01/16 07:18:58;;;;;;;7.95;3.50;;;3.60;99.90;;;;;;5066194;28;20033;-45
2024/01/16 07:21:23;;;;;;;11.05;3.65;;;3.50;99.90;;;;;;5066077;28;20060;-48
2024/01/16 07:23:49;;;;;;;6.68;3.15;;;3.50;99.90;;;;;;5064931;28;20111;-46
2024/01/16 07:26:16;;;;;;;12.90;4.43;;;3.50;99.90;;;;;;5065981;28;20048;-47
2024/01/16 07:28:42;;;;;;;4.78;1.77;;;3.40;99.90;;;;;;5066152;28;20036;-48
2024/01/16 07:31:09;;;;;;;5.47;1.95;;;3.40;99.90;;;;;;5066040;28;20051;-48
2024/01/16 07:33:35;;;;;;;6.65;1.80;;;3.40;99.90;;;;;;5065834;28;20052;-46
2024/01/16 07:36:01;;;;;;;4.07;1.50;;;3.40;99.90;;;;;;5064978;28;20299;-47
2024/01/16 07:38:26;;;;;;;4.78;2.03;;;3.30;99.90;;;;;;5065788;28;20041;-48
2024/01/16 07:40:52;;;;;;;2.47;0.90;;;3.30;99.90;;;;;;5065636;28;20092;-45
2024/01/16 07:43:18;;;;;;;5.05;1.60;;;3.40;99.90;;;;;;5047953;28;20078;-48
2024/01/16 07:45:43;;;;;;;5.45;2.40;;;3.30;99.90;;;;;;5065438;28;20029;-46
2024/01/16 07:48:09;;;;;;;5.18;1.17;;;3.30;99.90;;;;;;5064404;28;20297;-45
2024/01/16 07:50:35;;;;;;;2.80;1.40;;;3.40;99.90;;;;;;5065614;28;20029;-46
2024/01/16 07:53:00;;;;;;;4.57;1.20;;;3.40;99.90;;;;;;5065371;28;20182;-48
2024/01/16 07:55:26;;;;;;;6.22;1.02;;;3.40;99.90;;;;;;5065345;28;20033;-49
2024/01/16 07:57:53;;;;;;;3.50;1.00;;;3.40;99.90;;;;;;5047885;28;20100;-46
2024/01/16 08:00:19;;;;;;;4.13;0.90;;;3.30;99.90;;;;;;5064428;28;20290;-47
2024/01/16 08:02:45;;;;;;;4.07;1.17;;;3.30;99.90;;;;;;5065076;28;20024;-49
2024/01/16 08:05:10;;;;;;;4.60;0.90;;;3.20;99.90;;;;;;5064449;28;20050;-46
2024/01/16 08:07:36;;;;;;;5.65;0.93;;;3.20;99.90;;;;;;5065369;28;20040;-48
2024/01/16 08:10:02;;;;;;;3.40;1.10;;;3.10;99.90;;;;;;5065174;28;20037;-47
2024/01/16 08:12:28;;;;;;;4.22;1.20;;;3.10;99.90;;;;;;5065445;28;20025;-46
2024/01/16 08:14:53;;;;;;;2.30;1.10;;;3.10;99.90;;;;;;5065159;28;20068;-47
2024/01/16 08:17:19;;;;;;;3.88;1.45;;;3.10;99.90;;;;;;5065212;28;20044;-45
2024/01/16 08:19:45;;;;;;;3.58;1.00;;;3.10;99.90;;;;;;5065051;28;20021;-45
2024/01/16 08:22:10;;;;;;;3.85;0.90;;;3.20;99.90;;;;;;5065247;28;20040;-46
2024/01/16 08:24:36;;;;;;;3.38;0.80;;;3.30;99.90;;;;;;5065101;28;20224;-45
2024/01/16 08:27:02;;;;;;;4.82;0.98;;;3.40;99.90;;;;;;5065293;28;20020;-46
2024/01/16 08:29:28;;;;;;;2.55;0.70;;;3.50;99.90;;;;;;5065234;28;20063;-45
2024/01/16 08:31:54;;;;;;;1.95;0.90;;;3.60;99.90;;;;;;5065091;28;20290;-46
2024/01/16 08:34:19;;;;;;;4.45;0.95;;;3.60;99.90;;;;;;5063726;28;20299;-47
2024/01/16 08:36:45;;;;;;;2.70;1.20;;;3.60;99.90;;;;;;5065035;28;20107;-46
2024/01/16 08:39:11;;;;;;;5.32;1.70;;;3.70;99.90;;;;;;5063820;28;20047;-46
2024/01/16 08:41:37;;;;;;;6.28;2.05;;;3.70;99.90;;;;;;5064529;28;20127;-46
2024/01/16 08:44:02;;;;;;;2.15;1.10;;;3.80;99.90;;;;;;5064659;28;20187;-49
2024/01/16 08:46:28;;;;;;;2.22;1.25;;;3.90;99.90;;;;;;5063739;28;20271;-48
2024/01/16 08:48:54;;;;;;;10.40;3.65;;;3.90;99.90;;;;;;5063600;28;20033;-48
2024/01/16 08:51:19;;;;;;;4.88;1.30;;;4.00;99.90;;;;;;5063964;28;20092;-46
2024/01/16 08:53:45;;;;;;;7.80;2.55;;;4.00;99.90;;;;;;5067960;28;20094;-48
2024/01/16 08:56:12;;;;;;;4.07;1.63;;;4.10;99.90;;;;;;5067452;28;20033;-45
2024/01/16 08:58:38;;;;;;;4.50;1.75;;;4.20;99.90;;;;;;5068539;28;20048;-47
2024/01/16 09:01:07;;;;;;;6.95;2.10;;;4.20;99.90;;;;;;5068600;28;20072;-49
2024/01/16 09:03:33;;;;;;;3.75;1.40;;;4.20;99.90;;;;;;5068557;28;20220;-47
2024/01/16 09:05:59;;;;;;;2.35;1.48;;;4.20;99.90;;;;;;5068522;28;20035;-47
2024/01/16 09:08:26;;;;;;;4.60;1.85;;;4.30;99.90;;;;;;5068492;28;20029;-47
2024/01/16 09:10:52;;;;;;;14.07;5.20;;;4.30;99.90;;;;;;5068450;28;20029;-48
2024/01/16 09:13:18;;;;;;;8.93;2.85;;;4.40;99.90;;;;;;5068241;28;20305;-49
2024/01/16 09:15:46;;;;;;;8.93;3.03;;;4.40;99.90;;;;;;5068509;28;20060;-47
2024/01/16 09:18:12;;;;;;;12.60;3.60;;;4.40;99.90;;;;;;5068169;28;20282;-47
2024/01/16 09:20:38;;;;;;;21.58;8.80;;;4.50;99.90;;;;;;5068328;28;20045;-48
2024/01/16 09:23:04;;;;;;;11.52;4.63;;;4.50;99.90;;;;;;5067704;28;20170;-45
2024/01/16 09:25:30;;;;;;;3.78;1.70;;;4.60;99.90;;;;;;5068225;28;20025;-46
2024/01/16 09:27:55;;;;;;;6.07;1.65;;;4.70;99.90;;;;;;5068062;28;20033;-45
2024/01/16 09:30:22;;;;;;;5.75;2.03;;;4.80;99.90;;;;;;5067812;28;20084;-45
2024/01/16 09:32:48;;;;;;;6.72;1.98;;;4.90;99.90;;;;;;5067968;28;20029;-46
2024/01/16 09:35:14;;;;;;;3.40;1.30;;;4.90;99.90;;;;;;5066341;28;20098;-49
2024/01/16 09:37:40;;;;;;;7.10;1.88;;;5.00;99.90;;;;;;5067771;28;20274;-46
2024/01/16 09:40:07;;;;;;;11.82;3.08;;;5.00;99.90;;;;;;5066676;28;20214;-45
2024/01/16 09:42:32;;;;;;;6.38;2.08;;;5.00;99.90;;;;;;5067722;28;20330;-46
2024/01/16 09:44:59;;;;;;;7.75;2.47;;;5.00;99.90;;;;;;5067870;28;20036;-45
2024/01/16 09:47:25;;;;;;;3.30;1.10;;;5.10;99.90;;;;;;5066152;28;20148;-45
2024/01/16 09:49:51;;;;;;;5.55;1.63;;;5.10;99.90;;;;;;5066400;28;20041;-46
2024/01/16 09:52:16;;;;;;;7.15;1.92;;;5.20;99.90;;;;;;5067558;28;20029;-46
2024/01/16 09:54:42;;;;;;;4.22;1.10;;;5.20;99.90;;;;;;5067205;28;20044;-47
2024/01/16 09:57:08;;;;;;;9.63;2.22;;;5.20;99.90;;;;;;5066963;28;20265;-47
2024/01/16 09:59:35;;;;;;;10.05;3.67;;;5.30;99.90;;;;;;5066210;28;20052;-46
2024/01/16 10:02:05;;;;;;;4.20;1.77;;;5.40;99.90;;;;;;5049873;28;20021;-48
2024/01/16 10:04:31;;;;;;;4.72;1.10;;;5.30;99.90;;;;;;5066092;28;20021;-46
2024/01/16 10:06:57;;;;;;;5.13;1.23;;;5.20;99.90;;;;;;5066148;28;20087;-47
2024/01/16 10:09:23;;;;;;;5.72;1.58;;;5.30;99.90;;;;;;5066249;28;20160;-48
2024/01/16 10:11:48;;;;;;;3.38;1.20;;;5.40;99.90;;;;;;5067183;28;20082;-49
2024/01/16 10:14:14;;;;;;;4.78;1.38;;;5.50;99.90;;;;;;5067195;28;20024;-49
2024/01/16 10:17:05;;;;;;;3.05;1.27;;;5.70;99.90;;;;;;5049296;28;20065;-46
2024/01/16 10:19:31;;;;;;;3.55;1.00;;;5.80;99.90;;;;;;5066935;28;20047;-49
2024/01/16 10:22:04;;;;;;;4.82;1.60;;;5.80;99.90;;;;;;5066926;28;20255;-45
2024/01/16 10:24:30;;;;;;;3.38;1.08;;;5.80;99.90;;;;;;5067280;28;20028;-47
2024/01/16 10:27:00;;;;;;;4.10;1.10;;;5.80;99.90;;;;;;5066892;28;20029;-46
2024/01/16 10:29:26;;;;;;;4.18;1.35;;;5.80;99.90;;;;;;5066939;28;20039;-49
2024/01/16 10:31:52;;;;;;;4.65;1.13;;;5.80;99.90;;;;;;5066841;28;20048;-49
2024/01/16 10:34:24;;;;;;;3.33;0.82;;;5.80;99.90;;;;;;5065729;28;20028;-49
2024/01/16 10:36:52;;;;;;;4.30;1.08;;;5.80;99.90;;;;;;5066764;28;20090;-49
2024/01/16 10:39:17;;;;;;;0.80;0.70;;;5.80;99.90;;;;;;5066404;28;20097;-48
2024/01/16 10:41:54;;;;;;;6.07;1.42;;;5.70;99.90;;;;;;5066856;28;20147;-49
2024/01/16 10:44:20;;;;;;;1.98;0.85;;;5.80;99.90;;;;;;5066823;28;20052;-48
2024/01/16 10:46:45;;;;;;;5.30;1.35;;;5.80;99.90;;;;;;5066578;28;20284;-46
2024/01/16 10:49:11;;;;;;;2.65;0.90;;;5.80;99.90;;;;;;5066599;28;20021;-46
2024/01/16 10:51:39;;;;;;;3.33;0.80;;;5.90;99.90;;;;;;5065617;28;20039;-48
2024/01/16 10:54:10;;;;;;;2.92;0.93;;;5.90;99.90;;;;;;5065230;28;20040;-46
2024/01/16 10:56:36;;;;;;;2.08;0.80;;;6.00;99.90;;;;;;5065292;28;20156;-47
2024/01/16 10:59:17;;;;;;;1.83;0.80;;;5.90;99.90;;;;;;5065713;28;20037;-49
2024/01/16 11:01:45;;;;;;;2.70;0.88;;;5.90;99.90;;;;;;5066243;28;20033;-48
2024/01/16 11:04:11;;;;;;;5.25;1.30;;;5.90;99.90;;;;;;5065376;28;20053;-45
2024/01/16 11:06:37;;;;;;;5.35;1.30;;;5.90;99.90;;;;;;5066141;28;20025;-47
2024/01/16 11:09:02;;;;;;;6.05;1.58;;;5.90;99.90;;;;;;5048786;28;20160;-48
2024/01/16 11:11:28;;;;;;;3.70;1.20;;;5.90;99.90;;;;;;5065848;28;20036;-45
2024/01/16 11:13:54;;;;;;;7.40;4.53;;;5.90;99.90;;;;;;5065182;28;20187;-49
2024/01/16 11:16:20;;;;;;;7.43;2.30;;;5.90;99.90;;;;;;5064561;28;20203;-47
2024/01/16 11:18:46;;;;;;;27.85;13.20;;;5.80;99.90;;;;;;5064626;28;20047;-46
2024/01/16 11:21:13;;;;;;;104.10;49.10;;;5.80;99.90;;;;;;5064814;28;20032;-49
2024/01/16 11:23:39;;;;;;;96.07;42.55;;;5.80;99.90;;;;;;5047955;28;20029;-46
2024/01/16 11:26:27;;;;;;;18.20;8.25;;;5.80;99.90;;;;;;5064589;28;20036;-48
2024/01/16 11:28:56;;;;;;;220.30;106.88;;;5.80;99.90;;;;;;5065786;28;20096;-49
2024/01/16 11:31:34;;;;;;;41.40;26.13;;;5.90;99.90;;;;;;5065300;28;20033;-48
2024/01/16 11:34:01;;;;;;;7.43;4.40;;;6.00;99.90;;;;;;5065578;28;20062;-48
2024/01/16 11:36:43;;;;;;;17.73;11.88;;;6.00;99.90;;;;;;5065518;28;20052;-48
2024/01/16 11:39:10;;;;;;;14.48;10.75;;;6.00;99.90;;;;;;5064645;28;20112;-47
2024/01/16 11:41:51;;;;;;;15.80;13.55;;;6.10;99.90;;;;;;5064684;28;20195;-48
2024/01/16 11:44:53;;;;;;;5.15;3.40;;;6.10;99.90;;;;;;5065455;28;20033;-48
2024/01/16 11:47:23;;;;;;;6.40;5.40;;;6.10;99.90;;;;;;5064988;28;20055;-48
2024/01/16 11:49:50;;;;;;;4.57;2.07;;;6.00;99.90;;;;;;5065474;28;20025;-46
2024/01/16 11:52:21;;;;;;;2.90;1.63;;;6.00;99.90;;;;;;5065324;28;20354;-47
2024/01/16 11:54:46;;;;;;;5.40;4.88;;;6.10;99.90;;;;;;5048552;28;20063;-47
2024/01/16 11:57:17;;;;;;;2.35;1.27;;;6.10;99.90;;;;;;5065377;28;20025;-47
2024/01/16 11:59:59;;;;;;;8.50;2.10;;;6.20;99.90;;;;;;5064983;28;20033;-47
2024/01/16 12:02:49;;;;;;;4.28;1.40;;;6.20;99.90;;;;;;5065359;28;20021;-49
2024/01/16 12:05:15;;;;;;;4.20;1.80;;;6.20;99.90;;;;;;5065015;28;20152;-47
2024/01/16 12:07:49;;;;;;;3.63;1.30;;;6.20;99.90;;;;;;5064664;28;20330;-50
2024/01/16 12:10:19;;;;;;;7.35;2.08;;;6.30;99.90;;;;;;5065025;28;20064;-49
2024/01/16 12:12:45;;;;;;;3.40;1.33;;;6.30;99.90;;;;;;5065088;28;20185;-47
2024/01/16 12:15:17;;;;;;;3.50;1.10;;;6.20;99.90;;;;;;5064789;28;20057;-47
2024/01/16 12:17:52;;;;;;;3.15;0.93;;;6.20;99.90;;;;;;5064695;28;20032;-50
2024/01/16 12:20:18;;;;;;;0.90;0.63;;;6.30;99.90;;;;;;5064069;28;20233;-49
2024/01/16 12:22:44;;;;;;;51.33;27.20;;;6.40;99.90;;;;;;5064730;28;20084;-46
2024/01/16 12:25:10;;;;;;;93.65;49.53;;;6.40;99.90;;;;;;5046882;28;20032;-48
2024/01/16 12:27:36;;;;;;;49.20;27.65;;;6.20;99.90;;;;;;5066003;28;20029;-46
2024/01/16 12:30:08;;;;;;;44.47;22.50;;;6.20;99.90;;;;;;5068578;28;20218;-49
2024/01/16 12:32:34;;;;;;;20.27;13.27;;;6.30;99.90;;;;;;5068862;28;20315;-48
2024/01/16 12:34:59;;;;;;;33.00;10.55;;;6.40;99.90;;;;;;5067923;28;20065;-46
2024/01/16 12:37:25;;;;;;;3.40;2.40;;;6.40;99.90;;;;;;5067456;28;20056;-49
2024/01/16 12:39:52;;;;;;;6.95;3.85;;;6.40;99.90;;;;;;5067461;28;20039;-49
2024/01/16 12:42:17;;;;;;;4.85;1.48;;;6.50;99.90;;;;;;5068396;28;20029;-49
2024/01/16 12:44:43;;;;;;;1.63;1.20;;;6.70;99.90;;;;;;5067464;28;20075;-49
2024/01/16 12:47:08;;;;;;;5.20;1.77;;;6.80;99.90;;;;;;5068414;28;20119;-48
2024/01/16 12:49:41;;;;;;;3.17;1.40;;;6.90;99.90;;;;;;5068390;28;20039;-47
2024/01/16 12:52:24;;;;;;;4.00;1.55;;;7.10;99.90;;;;;;5068113;28;20024;-51